Time;durP1;ratioP1;P1;durP2;ratioP2;P2;SDS_P1;SDS_P2;PMS_P1;PMS_P2;Temp;Humidity;BMP_temperature;BMP_pressure;BME280_temperature;BME280_humidity;BME280_pressure;Samples;Min_cycle;Max_cycle;Signal;HPM_P1;HPM_P2
2021/12/08 00:00:22;;;;;;;;;;;;;;;-0.15;90.58;97729.91;1753566;81;25049;-85
2021/12/08 00:02:48;;;;;;;;;;;;;;;-0.22;90.60;97722.87;1754415;81;20219;-85
2021/12/08 00:05:15;;;;;;;;;;;;;;;-0.21;90.61;97722.42;1754279;80;25992;-85
2021/12/08 00:07:41;;;;;;;;;;;;;;;-0.22;90.63;97715.64;1751285;81;24486;-84
2021/12/08 00:10:28;;;;;;;;;;;;;;;-0.21;90.63;97714.27;1758549;80;20212;-85
2021/12/08 00:13:05;;;;;;;;;;;;;;;-0.20;90.66;97709.97;1740703;81;25190;-84
2021/12/08 00:15:33;;;;;;;;;;;;;;;-0.23;90.66;97707.53;1748361;81;22024;-84
2021/12/08 00:18:00;;;;;;;;;;;;;;;-0.18;90.69;97707.73;1741345;81;26156;-85
2021/12/08 00:20:29;;;;;;;;;;;;;;;-0.13;90.73;97709.68;1750399;81;24440;-84
2021/12/08 00:22:55;;;;;;;;;;;;;;;-0.02;90.76;97716.53;1748582;81;20209;-85
2021/12/08 00:25:21;;;;;;;;;;;;;;;-0.01;90.80;97715.64;1750248;80;25614;-85
2021/12/08 00:27:47;;;;;;;;;;;;;;;0.05;90.85;97724.85;1758911;80;21988;-84
2021/12/08 00:30:15;;;;;;;;;;;;;;;0.07;90.87;97727.34;1751559;81;26817;-84
2021/12/08 00:32:41;;;;;;;;;;;;;;;0.07;90.90;97726.05;1755967;81;24563;-84
2021/12/08 00:35:07;;;;;;;;;;;;;;;0.05;90.93;97733.86;1757311;81;20559;-85
2021/12/08 00:37:34;;;;;;;;;;;;;;;0.07;90.95;97739.75;1750455;81;25020;-85
2021/12/08 00:40:00;;;;;;;;;;;;;;;0.07;90.95;97746.19;1757303;81;21949;-84
2021/12/08 00:42:26;;;;;;;;;;;;;;;-0.01;90.92;97741.36;1756415;81;25960;-85
2021/12/08 00:44:52;;;;;;;;;;;;;;;-0.10;90.87;97736.55;1754390;81;24647;-84
2021/12/08 00:47:18;;;;;;;;;;;;;;;-0.14;90.83;97745.73;1753347;81;20245;-85
2021/12/08 00:49:46;;;;;;;;;;;;;;;-0.18;90.81;97739.04;1729987;81;24929;-84
2021/12/08 00:52:13;;;;;;;;;;;;;;;-0.18;90.77;97751.89;1754066;81;21952;-85
2021/12/08 00:54:40;;;;;;;;;;;;;;;-0.19;90.72;97752.34;1748398;81;26708;-85
2021/12/08 00:57:06;;;;;;;;;;;;;;;-0.21;90.72;97752.83;1754981;81;24457;-85
2021/12/08 00:59:33;;;;;;;;;;;;;;;-0.16;90.71;97750.92;1760558;80;20157;-85
2021/12/08 01:02:02;;;;;;;;;;;;;;;-0.07;90.73;97744.61;1754297;81;25107;-85
2021/12/08 01:04:27;;;;;;;;;;;;;;;0.01;90.79;97743.84;1757976;80;21827;-85
2021/12/08 01:06:57;;;;;;;;;;;;;;;0.09;90.83;97742.28;1749907;80;26033;-85
2021/12/08 01:09:21;;;;;;;;;;;;;;;0.09;90.86;97757.71;1757156;81;24544;-84
2021/12/08 01:11:47;;;;;;;;;;;;;;;0.08;90.90;97759.44;1754835;80;20264;-84
2021/12/08 01:14:14;;;;;;;;;;;;;;;0.11;90.92;97755.45;1757773;81;25631;-85
2021/12/08 01:16:41;;;;;;;;;;;;;;;0.10;90.92;97735.80;1749654;81;21999;-85
2021/12/08 01:19:07;;;;;;;;;;;;;;;0.09;90.93;97731.54;1756996;81;26044;-85
2021/12/08 01:21:33;;;;;;;;;;;;;;;0.14;90.94;97728.34;1749481;80;20265;-85
2021/12/08 01:24:00;;;;;;;;;;;;;;;0.16;90.93;97716.70;1747456;80;20166;-85
2021/12/08 01:26:26;;;;;;;;;;;;;;;0.11;90.94;97701.91;1747434;81;24939;-85
2021/12/08 01:28:56;;;;;;;;;;;;;;;0.09;90.92;97689.10;1751026;81;21964;-84
2021/12/08 01:31:21;;;;;;;;;;;;;;;0.07;90.90;97687.02;1751716;81;25991;-85
2021/12/08 01:33:47;;;;;;;;;;;;;;;0.10;90.90;97683.06;1749356;81;20547;-85
2021/12/08 01:36:13;;;;;;;;;;;;;;;0.19;90.90;97685.70;1747270;81;20239;-85
2021/12/08 01:38:39;;;;;;;;;;;;;;;0.16;90.89;97680.25;1758112;81;20334;-85
2021/12/08 01:41:06;;;;;;;;;;;;;;;0.18;90.91;97682.28;1730169;80;22484;-85
2021/12/08 01:45:57;;;;;;;;;;;;;;;0.17;90.87;97688.33;1735464;81;26078;-85
2021/12/08 01:46:11;;;;;;;;;;;;;;;0.18;90.87;97684.86;1745307;81;24464;-85
2021/12/08 01:48:38;;;;;;;;;;;;;;;0.19;90.86;97690.40;1757197;81;20285;-85
2021/12/08 01:51:06;;;;;;;;;;;;;;;0.14;90.84;97687.62;1755585;81;24998;-85
2021/12/08 01:53:32;;;;;;;;;;;;;;;0.05;90.80;97688.00;1753425;81;22000;-85
2021/12/08 01:55:58;;;;;;;;;;;;;;;0.03;90.76;97685.48;1749614;81;25909;-85
2021/12/08 01:58:25;;;;;;;;;;;;;;;0.02;90.72;97684.25;1751165;81;24468;-85
2021/12/08 02:00:56;;;;;;;;;;;;;;;0.04;90.69;97684.59;1758669;80;20631;-85
2021/12/08 02:03:23;;;;;;;;;;;;;;;0.05;90.68;97675.98;1750713;81;25027;-85
2021/12/08 02:05:50;;;;;;;;;;;;;;;0.12;90.67;97671.41;1758109;80;21963;-85
2021/12/08 02:08:16;;;;;;;;;;;;;;;0.17;90.68;97665.17;1749686;81;25992;-85
2021/12/08 02:10:42;;;;;;;;;;;;;;;0.18;90.69;97664.73;1745853;81;20285;-85
2021/12/08 02:13:12;;;;;;;;;;;;;;;0.19;90.70;97655.67;1753800;81;20256;-85
2021/12/08 02:15:39;;;;;;;;;;;;;;;0.17;90.68;97660.47;1753393;80;25730;-85
2021/12/08 02:18:07;;;;;;;;;;;;;;;0.10;90.66;97646.21;1754656;81;22054;-85
2021/12/08 02:20:33;;;;;;;;;;;;;;;0.02;90.61;97636.22;1750811;81;26178;-85
2021/12/08 02:22:59;;;;;;;;;;;;;;;0.00;90.55;97621.32;1750684;81;24491;-85
2021/12/08 02:25:27;;;;;;;;;;;;;;;0.00;90.52;97625.18;1748095;81;20259;-85
2021/12/08 02:27:55;;;;;;;;;;;;;;;0.00;90.49;97632.89;1750096;81;25687;-85
2021/12/08 02:46:46;;;;;;;;;;;;;;;-0.26;90.24;97615.08;1757791;80;26025;-86
2021/12/08 02:49:06;;;;;;;;;;;;;;;-0.37;90.16;97609.53;1754718;80;24458;-86
2021/12/08 02:51:33;;;;;;;;;;;;;;;-0.43;90.07;97619.16;1745542;81;20269;-86
2021/12/08 02:53:59;;;;;;;;;;;;;;;-0.47;90.02;97608.61;1755879;81;25647;-86
2021/12/08 02:56:26;;;;;;;;;;;;;;;-0.53;89.96;97600.30;1755648;80;22145;-86
2021/12/08 02:58:52;;;;;;;;;;;;;;;-0.57;89.92;97594.45;1756721;81;26145;-86
2021/12/08 03:01:18;;;;;;;;;;;;;;;-0.56;89.89;97601.27;1754038;81;20272;-86
2021/12/08 03:03:44;;;;;;;;;;;;;;;-0.55;89.84;97593.96;1757003;81;20264;-86
2021/12/08 03:06:11;;;;;;;;;;;;;;;-0.55;89.85;97593.96;1749127;81;25106;-86
2021/12/08 03:08:37;;;;;;;;;;;;;;;-0.56;89.86;97578.15;1750797;81;22010;-86
2021/12/08 03:11:03;;;;;;;;;;;;;;;-0.50;89.86;97575.78;1754478;81;21693;-85
2021/12/08 03:13:31;;;;;;;;;;;;;;;-0.55;89.86;97564.41;1751212;81;25092;-86
2021/12/08 03:15:58;;;;;;;;;;;;;;;-0.54;89.85;97561.36;1750181;81;20273;-86
2021/12/08 03:18:31;;;;;;;;;;;;;;;-0.54;89.84;97567.79;1757623;81;25017;-86
2021/12/08 03:20:52;;;;;;;;;;;;;;;-0.56;89.87;97576.02;1751682;80;22492;-85
2021/12/08 03:23:22;;;;;;;;;;;;;;;-0.54;89.85;97583.20;1746120;81;21685;-86
2021/12/08 03:25:55;;;;;;;;;;;;;;;-0.55;89.87;97584.13;1754280;81;24556;-86
2021/12/08 03:28:20;;;;;;;;;;;;;;;-0.56;89.86;97588.42;1744651;82;20305;-86
2021/12/08 03:33:28;;;;;;;;;;;;;;;-0.48;89.87;97582.52;1739888;81;22056;-85
2021/12/08 03:35:55;;;;;;;;;;;;;;;-0.49;89.87;97578.72;1723004;82;26646;-85
2021/12/08 03:38:21;;;;;;;;;;;;;;;-0.35;89.90;97586.73;1721062;82;24668;-86
2021/12/08 03:40:50;;;;;;;;;;;;;;;-0.26;89.95;97594.52;1727859;81;20524;-86
2021/12/08 03:43:16;;;;;;;;;;;;;;;-0.23;89.97;97583.68;1722310;83;24990;-86
2021/12/08 03:45:45;;;;;;;;;;;;;;;-0.04;90.03;97588.89;1713448;82;21897;-86
2021/12/08 03:48:13;;;;;;;;;;;;;;;0.00;90.06;97584.84;1756453;80;25988;-86
2021/12/08 03:50:40;;;;;;;;;;;;;;;-0.03;90.07;97579.84;1750338;81;24524;-85
2021/12/08 03:53:07;;;;;;;;;;;;;;;0.01;90.10;97583.11;1745137;81;20227;-85
2021/12/08 03:55:33;;;;;;;;;;;;;;;0.02;90.11;97583.50;1747654;81;25172;-85
2021/12/08 03:57:59;;;;;;;;;;;;;;;-0.04;90.08;97576.03;1756752;81;22007;-85
2021/12/08 04:00:28;;;;;;;;;;;;;;;-0.18;90.01;97575.33;1755257;81;26596;-85
2021/12/08 04:02:54;;;;;;;;;;;;;;;-0.25;89.96;97574.34;1747850;81;24437;-86
2021/12/08 04:05:31;;;;;;;;;;;;;;;-0.34;89.85;97569.58;1757314;81;20214;-85
2021/12/08 04:07:51;;;;;;;;;;;;;;;-0.41;89.74;97559.99;1749177;81;24978;-86
2021/12/08 04:10:19;;;;;;;;;;;;;;;-0.42;89.68;97556.58;1736908;81;22178;-85
2021/12/08 04:12:46;;;;;;;;;;;;;;;-0.46;89.63;97561.46;1748079;81;26916;-86
2021/12/08 04:15:14;;;;;;;;;;;;;;;-0.46;89.58;97566.60;1748471;81;24481;-85
2021/12/08 04:17:44;;;;;;;;;;;;;;;-0.47;89.56;97570.06;1748271;81;20284;-85
2021/12/08 04:20:12;;;;;;;;;;;;;;;-0.42;89.54;97560.44;1755036;81;24850;-86
2021/12/08 04:22:40;;;;;;;;;;;;;;;-0.41;89.50;97557.42;1753614;81;22730;-86
2021/12/08 04:25:14;;;;;;;;;;;;;;;-0.45;89.51;97561.86;1759969;80;26079;-85
2021/12/08 04:27:41;;;;;;;;;;;;;;;-0.52;89.47;97559.58;1736543;82;25080;-85
2021/12/08 04:30:15;;;;;;;;;;;;;;;-0.54;89.45;97555.78;1736031;81;20204;-85
2021/12/08 04:32:42;;;;;;;;;;;;;;;-0.57;89.41;97553.34;1735017;81;24996;-85
2021/12/08 04:35:10;;;;;;;;;;;;;;;-0.61;89.36;97551.80;1753359;81;22171;-85
2021/12/08 04:37:37;;;;;;;;;;;;;;;-0.68;89.33;97550.36;1754995;81;26101;-86
2021/12/08 04:45:31;;;;;;;;;;;;;;;-0.90;89.16;97554.66;1755171;81;25108;-85
2021/12/08 04:48:14;;;;;;;;;;;;;;;-0.96;89.10;97554.44;1752557;80;22217;-86
2021/12/08 05:01:32;;;;;;;;;;;;;;;-1.06;88.93;97528.73;1758971;80;22025;-85
2021/12/08 05:06:42;;;;;;;;;;;;;;;-1.02;88.96;97535.86;1757616;81;24490;-85
2021/12/08 05:09:06;;;;;;;;;;;;;;;-1.01;88.96;97533.24;1754293;80;20961;-85
2021/12/08 05:11:33;;;;;;;;;;;;;;;-1.01;88.96;97538.82;1758329;80;25796;-85
2021/12/08 05:14:01;;;;;;;;;;;;;;;-1.03;88.97;97529.05;1754089;81;22096;-85
2021/12/08 05:16:27;;;;;;;;;;;;;;;-1.06;88.96;97526.61;1754006;81;25955;-85
2021/12/08 05:18:55;;;;;;;;;;;;;;;-1.11;88.93;97525.50;1751358;81;24483;-85
2021/12/08 05:21:22;;;;;;;;;;;;;;;-1.16;88.93;97518.43;1749304;80;20215;-85
2021/12/08 05:24:03;;;;;;;;;;;;;;;-1.23;88.88;97518.70;1757954;81;25053;-85
2021/12/08 05:26:40;;;;;;;;;;;;;;;-1.33;88.82;97511.36;1751976;81;21978;-85
2021/12/08 05:29:07;;;;;;;;;;;;;;;-1.45;88.73;97504.11;1742620;81;25997;-85
2021/12/08 05:31:34;;;;;;;;;;;;;;;-1.55;88.65;97496.37;1751838;81;24529;-85
2021/12/08 05:34:00;;;;;;;;;;;;;;;-1.60;88.56;97503.84;1752012;81;20318;-85
2021/12/08 05:36:27;;;;;;;;;;;;;;;-1.66;88.49;97509.19;1750791;81;25162;-85
2021/12/08 05:38:54;;;;;;;;;;;;;;;-1.67;88.43;97517.77;1746853;80;22055;-85
2021/12/08 05:41:21;;;;;;;;;;;;;;;-1.69;88.38;97517.81;1754280;81;26002;-85
2021/12/08 05:43:48;;;;;;;;;;;;;;;-1.71;88.36;97510.20;1765000;80;24492;-85
2021/12/08 05:46:16;;;;;;;;;;;;;;;-1.73;88.33;97511.13;1752179;81;20252;-85
2021/12/08 05:48:42;;;;;;;;;;;;;;;-1.77;88.31;97517.27;1736584;81;26264;-85
2021/12/08 05:51:10;;;;;;;;;;;;;;;-1.88;88.25;97510.40;1747261;81;21891;-85
2021/12/08 05:53:37;;;;;;;;;;;;;;;-1.91;88.22;97510.52;1747732;81;26102;-85
2021/12/08 05:56:04;;;;;;;;;;;;;;;-1.91;88.16;97505.39;1752376;81;24462;-85
2021/12/08 05:58:30;;;;;;;;;;;;;;;-1.93;88.11;97508.00;1751715;81;20355;-85
2021/12/08 06:00:58;;;;;;;;;;;;;;;-1.92;88.10;97508.84;1749195;81;25057;-85
2021/12/08 06:03:24;;;;;;;;;;;;;;;-1.95;88.09;97503.36;1751000;81;21939;-85
2021/12/08 06:05:52;;;;;;;;;;;;;;;-1.94;88.07;97501.20;1741742;81;25976;-85
2021/12/08 06:08:18;;;;;;;;;;;;;;;-1.93;88.07;97499.47;1744813;82;24491;-85
2021/12/08 06:10:45;;;;;;;;;;;;;;;-1.92;88.05;97489.17;1752986;80;20345;-85
2021/12/08 06:13:13;;;;;;;;;;;;;;;-1.92;88.04;97487.89;1751971;81;24980;-85
2021/12/08 06:15:41;;;;;;;;;;;;;;;-1.92;88.04;97490.90;1741468;81;22186;-85
2021/12/08 06:18:07;;;;;;;;;;;;;;;-1.91;88.03;97488.73;1747648;81;26137;-85
2021/12/08 06:20:33;;;;;;;;;;;;;;;-1.88;88.00;97495.86;1751210;81;24443;-85
2021/12/08 06:23:00;;;;;;;;;;;;;;;-1.84;88.02;97499.14;1751070;81;20240;-85
2021/12/08 06:25:26;;;;;;;;;;;;;;;-1.77;88.05;97504.00;1755973;81;25120;-85
2021/12/08 06:27:53;;;;;;;;;;;;;;;-1.58;88.10;97502.88;1758840;81;22247;-86
2021/12/08 06:30:20;;;;;;;;;;;;;;;-1.41;88.15;97505.66;1756007;81;26162;-85
2021/12/08 06:32:46;;;;;;;;;;;;;;;-1.30;88.14;97504.81;1756590;81;24479;-85
2021/12/08 06:35:14;;;;;;;;;;;;;;;-1.31;88.12;97506.98;1752337;81;20203;-85
2021/12/08 06:37:41;;;;;;;;;;;;;;;-1.43;88.08;97506.63;1745610;81;25483;-87
2021/12/08 06:40:12;;;;;;;;;;;;;;;-1.56;88.03;97506.23;1754463;81;22006;-87
2021/12/08 06:42:40;;;;;;;;;;;;;;;-1.64;87.97;97504.41;1733942;81;26075;-85
2021/12/08 06:45:07;;;;;;;;;;;;;;;-1.71;87.89;97508.08;1753453;81;24497;-84
2021/12/08 06:47:33;;;;;;;;;;;;;;;-1.76;87.83;97512.53;1764039;80;20964;-85
2021/12/08 06:50:01;;;;;;;;;;;;;;;-1.80;87.76;97513.07;1755023;81;24981;-85
2021/12/08 06:52:29;;;;;;;;;;;;;;;-1.85;87.67;97510.28;1766807;80;22641;-86
2021/12/08 06:54:58;;;;;;;;;;;;;;;-1.91;87.61;97508.77;1752153;81;25987;-85
2021/12/08 06:57:29;;;;;;;;;;;;;;;-1.97;87.51;97501.76;1747708;81;25238;-85
2021/12/08 07:00:03;;;;;;;;;;;;;;;-2.00;87.45;97509.09;1752676;81;20194;-85
2021/12/08 07:05:42;;;;;;;;;;;;;;;-2.01;87.33;97502.29;1748713;81;22016;-85
2021/12/08 07:08:06;;;;;;;;;;;;;;;-2.02;87.29;97507.05;1750690;81;26019;-85
2021/12/08 07:10:35;;;;;;;;;;;;;;;-2.04;87.26;97511.38;1755953;81;24479;-85
2021/12/08 07:13:09;;;;;;;;;;;;;;;-2.14;87.21;97512.16;1757018;81;20281;-85
2021/12/08 07:15:40;;;;;;;;;;;;;;;-2.22;87.14;97509.44;1757167;81;25215;-86
2021/12/08 07:18:08;;;;;;;;;;;;;;;-2.20;87.09;97516.20;1752488;81;22262;-86
2021/12/08 07:20:45;;;;;;;;;;;;;;;-1.97;87.11;97518.42;1757101;81;26015;-86
2021/12/08 07:23:11;;;;;;;;;;;;;;;-1.76;87.13;97511.25;1707925;82;25109;-86
2021/12/08 07:25:37;;;;;;;;;;;;;;;-1.69;87.15;97522.50;1739856;81;20315;-86
2021/12/08 07:28:05;;;;;;;;;;;;;;;-1.62;87.17;97523.13;1740918;82;24595;-86
2021/12/08 07:30:33;;;;;;;;;;;;;;;-1.57;87.21;97519.95;1739976;81;22173;-86
2021/12/08 07:32:59;;;;;;;;;;;;;;;-1.62;87.19;97522.28;1743892;81;26198;-86
2021/12/08 07:35:27;;;;;;;;;;;;;;;-1.69;87.17;97521.22;1741317;81;24767;-86
2021/12/08 07:37:54;;;;;;;;;;;;;;;-1.65;87.19;97518.56;1744820;81;20227;-86
2021/12/08 07:40:21;;;;;;;;;;;;;;;-1.53;87.18;97515.12;1743096;82;25663;-86
2021/12/08 07:42:49;;;;;;;;;;;;;;;-1.48;87.17;97511.94;1741798;81;21981;-85
2021/12/08 07:45:17;;;;;;;;;;;;;;;-1.55;87.12;97517.33;1738979;81;26109;-86
2021/12/08 07:47:45;;;;;;;;;;;;;;;-1.64;87.09;97526.66;1737859;82;24491;-85
2021/12/08 07:50:24;;;;;;;;;;;;;;;-1.70;87.05;97527.71;1741750;81;20215;-85
2021/12/08 07:52:51;;;;;;;;;;;;;;;-1.71;87.01;97526.03;1740728;81;25814;-85
2021/12/08 07:55:19;;;;;;;;;;;;;;;-1.71;86.96;97529.44;1745005;82;22008;-85
2021/12/08 07:57:46;;;;;;;;;;;;;;;-1.71;86.94;97529.44;1740969;82;26258;-85
2021/12/08 08:00:14;;;;;;;;;;;;;;;-1.73;86.88;97527.80;1738244;82;25245;-85
2021/12/08 08:02:40;;;;;;;;;;;;;;;-1.71;86.87;97530.72;1723494;82;20215;-86
2021/12/08 08:05:08;;;;;;;;;;;;;;;-1.70;86.83;97527.71;1742792;82;25742;-86
2021/12/08 08:07:35;;;;;;;;;;;;;;;-1.70;86.84;97524.70;1736273;82;22804;-86
2021/12/08 08:10:03;;;;;;;;;;;;;;;-1.66;86.84;97524.58;1739742;81;25869;-86
2021/12/08 08:12:31;;;;;;;;;;;;;;;-1.64;86.83;97529.22;1732036;82;24404;-86
2021/12/08 08:15:02;;;;;;;;;;;;;;;-1.52;86.85;97523.63;1741839;81;20304;-86
2021/12/08 08:17:33;;;;;;;;;;;;;;;-1.47;86.85;97520.00;1739450;81;25082;-86
2021/12/08 08:19:57;;;;;;;;;;;;;;;-1.42;86.90;97520.66;1733185;81;21550;-86
2021/12/08 08:22:28;;;;;;;;;;;;;;;-1.39;86.90;97528.70;1721482;83;26038;-86
2021/12/08 08:24:55;;;;;;;;;;;;;;;-1.38;86.90;97528.66;1739164;81;24528;-86
2021/12/08 08:27:22;;;;;;;;;;;;;;;-1.42;86.88;97528.36;1736656;81;20223;-86
2021/12/08 08:29:48;;;;;;;;;;;;;;;-1.45;86.89;97519.95;1733731;82;25182;-86
2021/12/08 08:32:24;;;;;;;;;;;;;;;-1.47;86.82;97525.13;1752288;81;22138;-85
2021/12/08 08:34:48;;;;;;;;;;;;;;;-1.45;86.78;97522.52;1754544;81;26807;-86
2021/12/08 08:37:14;;;;;;;;;;;;;;;-1.42;86.75;97527.08;1752564;80;24499;-86
2021/12/08 08:39:42;;;;;;;;;;;;;;;-1.34;86.76;97530.21;1750718;81;20282;-86
2021/12/08 08:42:10;;;;;;;;;;;;;;;-1.36;86.73;97528.14;1751151;81;25032;-86
2021/12/08 08:44:38;;;;;;;;;;;;;;;-1.42;86.71;97532.20;1756345;81;22106;-86
2021/12/08 08:47:07;;;;;;;;;;;;;;;-1.50;86.63;97537.24;1744168;81;26085;-85
2021/12/08 08:49:34;;;;;;;;;;;;;;;-1.51;86.59;97534.28;1755936;81;24564;-85
2021/12/08 08:52:05;;;;;;;;;;;;;;;-1.54;86.54;97535.25;1755340;81;20328;-85
2021/12/08 08:54:33;;;;;;;;;;;;;;;-1.56;86.47;97534.45;1750831;81;25044;-85
2021/12/08 08:57:01;;;;;;;;;;;;;;;-1.53;86.45;97531.80;1751197;81;22917;-85
2021/12/08 08:59:29;;;;;;;;;;;;;;;-1.56;86.42;97531.89;1757125;81;26848;-85
2021/12/08 09:01:56;;;;;;;;;;;;;;;-1.58;86.36;97532.37;1752846;81;24427;-85
2021/12/08 09:04:23;;;;;;;;;;;;;;;-1.59;86.35;97533.30;1741666;82;20336;-85
2021/12/08 09:06:50;;;;;;;;;;;;;;;-1.55;86.35;97525.03;1741849;81;24918;-85
2021/12/08 09:09:18;;;;;;;;;;;;;;;-1.46;86.33;97525.52;1747359;81;22008;-85
2021/12/08 09:11:46;;;;;;;;;;;;;;;-1.41;86.37;97521.06;1755913;81;26220;-85
2021/12/08 09:14:29;;;;;;;;;;;;;;;-1.36;86.38;97521.72;1756213;81;25423;-85
2021/12/08 09:16:57;;;;;;;;;;;;;;;-1.30;86.42;97519.38;1732508;80;20241;-85
2021/12/08 09:19:25;;;;;;;;;;;;;;;-1.27;86.46;97511.58;1740446;81;25006;-85
2021/12/08 09:22:02;;;;;;;;;;;;;;;-1.23;86.46;97503.30;1751584;80;22196;-85
2021/12/08 09:24:34;;;;;;;;;;;;;;;-1.16;86.51;97497.05;1753794;80;26079;-85
2021/12/08 09:26:58;;;;;;;;;;;;;;;-1.14;86.54;97498.65;1744828;81;24476;-85
2021/12/08 09:29:26;;;;;;;;;;;;;;;-1.25;86.52;97488.43;1745209;81;20219;-85
2021/12/08 09:31:55;;;;;;;;;;;;;;;-1.16;86.52;97505.59;1754201;81;25350;-85
2021/12/08 09:34:23;;;;;;;;;;;;;;;-1.15;86.53;97506.43;1741945;81;22035;-85
2021/12/08 09:36:51;;;;;;;;;;;;;;;-1.09;86.54;97504.44;1750938;81;26077;-85
2021/12/08 09:39:24;;;;;;;;;;;;;;;-1.07;86.55;97504.39;1753127;81;24811;-85
2021/12/08 09:41:57;;;;;;;;;;;;;;;-1.06;86.54;97490.67;1757907;80;20507;-85
2021/12/08 09:44:25;;;;;;;;;;;;;;;-1.00;86.58;97487.86;1752179;81;25123;-85
2021/12/08 09:46:52;;;;;;;;;;;;;;;-0.98;86.58;97486.05;1754151;81;22159;-85
2021/12/08 09:49:23;;;;;;;;;;;;;;;-0.97;86.57;97478.74;1754451;81;26727;-85
2021/12/08 09:51:48;;;;;;;;;;;;;;;-0.97;86.57;97485.16;1754231;80;25271;-86
2021/12/08 09:54:14;;;;;;;;;;;;;;;-0.97;86.56;97486.00;1752413;81;20280;-85
2021/12/08 09:56:43;;;;;;;;;;;;;;;-1.02;86.55;97487.91;1758056;81;25862;-85
2021/12/08 09:59:09;;;;;;;;;;;;;;;-1.01;86.53;97490.88;1754059;81;21958;-85
2021/12/08 10:01:39;;;;;;;;;;;;;;;-1.01;86.52;97489.59;1750462;81;26004;-85
2021/12/08 10:04:05;;;;;;;;;;;;;;;-1.03;86.50;97484.11;1756551;81;25263;-85
2021/12/08 10:06:31;;;;;;;;;;;;;;;-1.07;86.47;97476.99;1750499;81;20516;-85
2021/12/08 10:08:59;;;;;;;;;;;;;;;-1.09;86.45;97467.70;1750511;80;25857;-85
2021/12/08 10:11:26;;;;;;;;;;;;;;;-1.10;86.42;97458.31;1753103;81;22183;-85
2021/12/08 10:13:52;;;;;;;;;;;;;;;-1.10;86.40;97453.18;1751707;81;26116;-86
2021/12/08 10:16:19;;;;;;;;;;;;;;;-1.11;86.37;97457.92;1747244;81;24573;-85
2021/12/08 10:18:45;;;;;;;;;;;;;;;-1.08;86.38;97462.48;1742447;81;20194;-85
2021/12/08 10:21:13;;;;;;;;;;;;;;;-1.09;86.37;97451.81;1749925;81;25759;-85
2021/12/08 10:23:44;;;;;;;;;;;;;;;-1.06;86.36;97456.84;1752626;81;22108;-86
2021/12/08 10:26:12;;;;;;;;;;;;;;;-1.06;86.37;97449.59;1751628;81;26103;-85
2021/12/08 10:28:42;;;;;;;;;;;;;;;-1.04;86.39;97447.81;1737385;81;24330;-85
2021/12/08 10:31:19;;;;;;;;;;;;;;;-1.06;86.38;97442.73;1746977;81;20231;-85
2021/12/08 10:33:59;;;;;;;;;;;;;;;-1.04;86.37;97439.66;1755347;81;24456;-86
2021/12/08 10:36:45;;;;;;;;;;;;;;;-1.05;86.37;97437.98;1751935;81;22013;-86
2021/12/08 10:39:12;;;;;;;;;;;;;;;-1.06;86.39;97431.62;1756977;80;26229;-86
2021/12/08 10:41:57;;;;;;;;;;;;;;;-1.08;86.38;97429.10;1745097;81;25165;-86
2021/12/08 10:44:24;;;;;;;;;;;;;;;-1.07;86.37;97426.92;1743387;81;20247;-86
2021/12/08 10:46:55;;;;;;;;;;;;;;;-1.05;86.40;97417.45;1745288;81;25014;-86
2021/12/08 10:54:22;;;;;;;;;;;;;;;-1.01;86.42;97414.30;1726691;81;22035;-86
2021/12/08 10:54:35;;;;;;;;;;;;;;;-0.96;86.48;97409.36;1731972;81;24493;-86
2021/12/08 10:57:03;;;;;;;;;;;;;;;-0.93;86.52;97396.86;1743834;81;20219;-86
2021/12/08 10:59:31;;;;;;;;;;;;;;;-0.92;86.56;97395.94;1740438;82;25039;-86
2021/12/08 11:01:59;;;;;;;;;;;;;;;-0.91;86.60;97397.17;1738325;81;22072;-87
2021/12/08 11:04:31;;;;;;;;;;;;;;;-0.91;86.62;97392.48;1737549;82;26080;-87
2021/12/08 11:07:04;;;;;;;;;;;;;;;-0.91;86.64;97392.03;1739331;81;25322;-86
2021/12/08 11:09:32;;;;;;;;;;;;;;;-0.90;86.68;97389.02;1747016;81;20186;-86
2021/12/08 11:11:59;;;;;;;;;;;;;;;-0.88;86.72;97385.95;1729747;81;25793;-86
2021/12/08 11:14:25;;;;;;;;;;;;;;;-0.85;86.73;97385.36;1745805;81;22041;-86
2021/12/08 11:16:52;;;;;;;;;;;;;;;-0.80;86.77;97387.73;1740224;82;26060;-86
2021/12/08 11:19:24;;;;;;;;;;;;;;;-0.77;86.82;97380.38;1743936;81;20875;-86
2021/12/08 11:21:54;;;;;;;;;;;;;;;-0.72;86.89;97379.73;1730846;81;20247;-86
2021/12/08 11:24:48;;;;;;;;;;;;;;;-0.70;86.92;97378.75;1742068;81;25148;-86
2021/12/08 11:26:53;;;;;;;;;;;;;;;-0.69;86.99;97372.72;1734875;81;22077;-86
2021/12/08 11:29:24;;;;;;;;;;;;;;;-0.69;87.02;97372.72;1725318;81;26081;-86
2021/12/08 11:31:55;;;;;;;;;;;;;;;-0.70;87.04;97366.34;1743177;81;24392;-86
2021/12/08 11:34:23;;;;;;;;;;;;;;;-0.70;87.07;97368.47;1741796;81;20244;-86
2021/12/08 11:37:00;;;;;;;;;;;;;;;-0.70;87.07;97372.33;1739263;81;25087;-85
2021/12/08 11:39:30;;;;;;;;;;;;;;;-0.71;87.09;97365.98;1743625;81;21907;-86
2021/12/08 11:41:59;;;;;;;;;;;;;;;-0.69;87.14;97365.01;1736009;81;26367;-86
2021/12/08 11:44:26;;;;;;;;;;;;;;;-0.65;87.18;97358.83;1747937;81;25166;-85
2021/12/08 11:46:57;;;;;;;;;;;;;;;-0.62;87.21;97360.45;1748868;81;20213;-84
2021/12/08 11:49:23;;;;;;;;;;;;;;;-0.59;87.25;97362.43;1729012;81;25020;-85
2021/12/08 11:51:51;;;;;;;;;;;;;;;-0.55;87.34;97356.73;1748949;81;22083;-85
2021/12/08 11:54:24;;;;;;;;;;;;;;;-0.53;87.38;97351.89;1723312;81;26056;-85
2021/12/08 11:56:50;;;;;;;;;;;;;;;-0.51;87.44;97351.39;1724199;82;24490;-85
2021/12/08 11:59:17;;;;;;;;;;;;;;;-0.50;87.48;97352.23;1742098;81;20311;-85
2021/12/08 12:01:43;;;;;;;;;;;;;;;-0.47;87.50;97348.23;1738249;81;25148;-84
2021/12/08 12:04:09;;;;;;;;;;;;;;;-0.45;87.55;97351.13;1728601;81;21974;-84
2021/12/08 12:06:36;;;;;;;;;;;;;;;-0.42;87.58;97357.41;1734794;81;26039;-85
2021/12/08 12:09:04;;;;;;;;;;;;;;;-0.39;87.62;97356.91;1746923;81;24486;-84
2021/12/08 12:11:30;;;;;;;;;;;;;;;-0.33;87.68;97361.78;1741221;81;20255;-85
2021/12/08 12:13:57;;;;;;;;;;;;;;;-0.31;87.73;97359.95;1743445;82;25186;-85
2021/12/08 12:16:24;;;;;;;;;;;;;;;-0.43;87.75;97346.73;1743276;81;22884;-85
2021/12/08 12:18:53;;;;;;;;;;;;;;;-0.32;87.78;97360.41;1742039;81;26230;-85
2021/12/08 12:21:20;;;;;;;;;;;;;;;-0.32;87.80;97360.41;1748455;81;24453;-85
2021/12/08 12:23:53;;;;;;;;;;;;;;;-0.32;87.82;97360.84;1740694;81;20245;-85
2021/12/08 12:26:24;;;;;;;;;;;;;;;-0.32;87.84;97359.12;1737250;81;25051;-85
2021/12/08 12:28:52;;;;;;;;;;;;;;;-0.33;87.85;97348.92;1722870;82;22077;-84
2021/12/08 12:31:23;;;;;;;;;;;;;;;-0.33;87.86;97353.63;1722007;82;25986;-84
2021/12/08 12:33:51;;;;;;;;;;;;;;;-0.35;87.86;97352.84;1742209;81;24425;-85
2021/12/08 12:36:18;;;;;;;;;;;;;;;-0.36;87.87;97346.47;1742123;81;20475;-85
2021/12/08 12:38:44;;;;;;;;;;;;;;;-0.37;87.85;97343.52;1728252;82;25202;-85
2021/12/08 12:41:14;;;;;;;;;;;;;;;-0.39;87.85;97333.77;1734048;82;20911;-85
2021/12/08 12:43:43;;;;;;;;;;;;;;;-0.37;87.84;97333.23;1735177;81;26005;-85
2021/12/08 12:46:09;;;;;;;;;;;;;;;-0.47;87.86;97315.66;1739243;81;24652;-85
2021/12/08 12:48:37;;;;;;;;;;;;;;;-0.37;87.88;97339.66;1735609;82;20307;-85
2021/12/08 12:51:08;;;;;;;;;;;;;;;-0.39;87.88;97346.63;1742568;81;24993;-85
2021/12/08 12:53:36;;;;;;;;;;;;;;;-0.39;87.91;97344.05;1745107;82;21970;-84
2021/12/08 12:56:06;;;;;;;;;;;;;;;-0.43;87.88;97342.05;1739032;82;26058;-85
2021/12/08 12:58:40;;;;;;;;;;;;;;;-0.44;87.88;97344.26;1745040;81;24545;-85
2021/12/08 13:01:09;;;;;;;;;;;;;;;-0.47;87.87;97349.06;1691818;81;20367;-85
2021/12/08 13:03:43;;;;;;;;;;;;;;;-0.49;87.87;97335.44;1732360;81;25852;-85
2021/12/08 13:06:10;;;;;;;;;;;;;;;-0.52;87.85;97337.31;1737646;81;22075;-85
2021/12/08 13:08:41;;;;;;;;;;;;;;;-0.53;87.85;97336.92;1740046;81;25972;-85
2021/12/08 13:11:33;;;;;;;;;;;;;;;-0.56;87.85;97337.91;1738347;81;24504;-85
2021/12/08 13:13:54;;;;;;;;;;;;;;;-0.58;87.84;97337.12;1735081;81;20265;-84
2021/12/08 13:16:25;;;;;;;;;;;;;;;-0.62;87.83;97339.45;1721075;82;25912;-85
2021/12/08 13:18:52;;;;;;;;;;;;;;;-0.63;87.84;97338.23;1738571;82;22138;-85
2021/12/08 13:21:20;;;;;;;;;;;;;;;-0.68;87.82;97333.29;1731930;81;26827;-85
2021/12/08 13:23:46;;;;;;;;;;;;;;;-0.72;87.80;97330.48;1740177;81;25390;-85
2021/12/08 13:26:19;;;;;;;;;;;;;;;-0.75;87.81;97334.44;1718508;82;20471;-85
2021/12/08 13:28:58;;;;;;;;;;;;;;;-0.77;87.79;97324.70;1747783;81;20509;-85
2021/12/08 13:31:24;;;;;;;;;;;;;;;-0.81;87.79;97329.56;1737298;81;22115;-85
2021/12/08 13:33:48;;;;;;;;;;;;;;;-0.85;87.82;97339.14;1726484;82;26129;-85
2021/12/08 13:36:16;;;;;;;;;;;;;;;-0.90;87.79;97332.53;1741164;81;24412;-85